sensor_id;sensor_type;location;lat;lon;timestamp;P1;durP1;ratioP1;P2;durP2;ratioP2
65715;SDS011;63484;52.054;8.518;2023-01-23T00:03:55;25.87;;;10.57;;
65715;SDS011;63484;52.054;8.518;2023-01-23T00:08:59;20.63;;;10.53;;
65715;SDS011;63484;52.054;8.518;2023-01-23T00:14:01;23.63;;;10.50;;
65715;SDS011;63484;52.054;8.518;2023-01-23T00:19:03;26.47;;;10.43;;
65715;SDS011;63484;52.054;8.518;2023-01-23T00:24:07;24.63;;;9.90;;
65715;SDS011;63484;52.054;8.518;2023-01-23T00:29:11;27.03;;;10.63;;
65715;SDS011;63484;52.054;8.518;2023-01-23T00:34:14;25.50;;;10.13;;
65715;SDS011;63484;52.054;8.518;2023-01-23T00:39:18;24.80;;;10.30;;
65715;SDS011;63484;52.054;8.518;2023-01-23T00:44:23;24.90;;;10.23;;
65715;SDS011;63484;52.054;8.518;2023-01-23T00:49:24;28.90;;;10.50;;
65715;SDS011;63484;52.054;8.518;2023-01-23T00:54:28;24.60;;;10.37;;
65715;SDS011;63484;52.054;8.518;2023-01-23T00:59:29;25.70;;;10.00;;
65715;SDS011;63484;52.054;8.518;2023-01-23T01:04:31;24.13;;;10.27;;
65715;SDS011;63484;52.054;8.518;2023-01-23T01:09:37;25.40;;;10.70;;
65715;SDS011;63484;52.054;8.518;2023-01-23T01:14:38;26.00;;;10.57;;
65715;SDS011;63484;52.054;8.518;2023-01-23T01:19:40;24.10;;;10.07;;
65715;SDS011;63484;52.054;8.518;2023-01-23T01:24:43;25.90;;;10.60;;
65715;SDS011;63484;52.054;8.518;2023-01-23T01:29:44;25.70;;;10.93;;
65715;SDS011;63484;52.054;8.518;2023-01-23T01:34:46;24.87;;;10.87;;
65715;SDS011;63484;52.054;8.518;2023-01-23T01:39:50;25.07;;;10.80;;
65715;SDS011;63484;52.054;8.518;2023-01-23T01:44:53;32.40;;;11.47;;
65715;SDS011;63484;52.054;8.518;2023-01-23T01:49:57;26.93;;;9.93;;
65715;SDS011;63484;52.054;8.518;2023-01-23T01:55:04;28.80;;;10.20;;
65715;SDS011;63484;52.054;8.518;2023-01-23T02:00:08;31.40;;;10.13;;
65715;SDS011;63484;52.054;8.518;2023-01-23T02:05:14;28.40;;;10.77;;
65715;SDS011;63484;52.054;8.518;2023-01-23T02:10:20;26.87;;;9.87;;
65715;SDS011;63484;52.054;8.518;2023-01-23T02:20:25;32.27;;;10.40;;
65715;SDS011;63484;52.054;8.518;2023-01-23T02:25:33;27.13;;;9.53;;
65715;SDS011;63484;52.054;8.518;2023-01-23T02:30:42;33.77;;;10.63;;
65715;SDS011;63484;52.054;8.518;2023-01-23T02:35:46;30.90;;;10.43;;
65715;SDS011;63484;52.054;8.518;2023-01-23T02:40:49;32.70;;;10.87;;
65715;SDS011;63484;52.054;8.518;2023-01-23T02:45:55;31.60;;;10.33;;
65715;SDS011;63484;52.054;8.518;2023-01-23T02:50:57;30.40;;;10.53;;
65715;SDS011;63484;52.054;8.518;2023-01-23T02:55:59;33.07;;;10.40;;
65715;SDS011;63484;52.054;8.518;2023-01-23T03:01:02;29.43;;;10.37;;
65715;SDS011;63484;52.054;8.518;2023-01-23T03:06:04;27.30;;;9.10;;
65715;SDS011;63484;52.054;8.518;2023-01-23T03:11:06;29.37;;;10.27;;
65715;SDS011;63484;52.054;8.518;2023-01-23T03:16:09;29.27;;;10.20;;
65715;SDS011;63484;52.054;8.518;2023-01-23T03:21:11;23.80;;;8.65;;
65715;SDS011;63484;52.054;8.518;2023-01-23T03:26:14;25.77;;;9.63;;
65715;SDS011;63484;52.054;8.518;2023-01-23T03:31:18;32.07;;;10.57;;
65715;SDS011;63484;52.054;8.518;2023-01-23T03:36:20;27.27;;;9.53;;
65715;SDS011;63484;52.054;8.518;2023-01-23T03:41:22;25.17;;;9.10;;
65715;SDS011;63484;52.054;8.518;2023-01-23T03:46:31;23.37;;;9.03;;
65715;SDS011;63484;52.054;8.518;2023-01-23T03:51:32;26.20;;;9.37;;
65715;SDS011;63484;52.054;8.518;2023-01-23T03:56:34;22.07;;;8.80;;
65715;SDS011;63484;52.054;8.518;2023-01-23T04:01:37;20.03;;;8.53;;
65715;SDS011;63484;52.054;8.518;2023-01-23T04:06:40;21.10;;;8.77;;
65715;SDS011;63484;52.054;8.518;2023-01-23T04:11:43;20.83;;;8.33;;
65715;SDS011;63484;52.054;8.518;2023-01-23T04:16:46;18.07;;;8.20;;
65715;SDS011;63484;52.054;8.518;2023-01-23T04:21:48;18.98;;;8.10;;
65715;SDS011;63484;52.054;8.518;2023-01-23T04:26:50;21.63;;;8.53;;
65715;SDS011;63484;52.054;8.518;2023-01-23T04:31:53;23.42;;;8.90;;
65715;SDS011;63484;52.054;8.518;2023-01-23T04:36:55;18.05;;;8.00;;
65715;SDS011;63484;52.054;8.518;2023-01-23T04:41:57;19.15;;;8.43;;
65715;SDS011;63484;52.054;8.518;2023-01-23T04:47:23;21.37;;;8.67;;
65715;SDS011;63484;52.054;8.518;2023-01-23T04:52:25;21.40;;;8.73;;
65715;SDS011;63484;52.054;8.518;2023-01-23T04:57:30;20.50;;;8.70;;
65715;SDS011;63484;52.054;8.518;2023-01-23T05:02:43;19.03;;;7.83;;
65715;SDS011;63484;52.054;8.518;2023-01-23T05:07:46;22.70;;;8.67;;
65715;SDS011;63484;52.054;8.518;2023-01-23T05:12:49;20.15;;;8.07;;
65715;SDS011;63484;52.054;8.518;2023-01-23T05:17:52;27.93;;;9.30;;
65715;SDS011;63484;52.054;8.518;2023-01-23T05:28:04;20.57;;;8.63;;
65715;SDS011;63484;52.054;8.518;2023-01-23T05:33:08;21.57;;;8.73;;
65715;SDS011;63484;52.054;8.518;2023-01-23T05:38:10;26.38;;;9.77;;
65715;SDS011;63484;52.054;8.518;2023-01-23T05:43:13;23.08;;;9.45;;
65715;SDS011;63484;52.054;8.518;2023-01-23T05:48:35;24.53;;;9.40;;
65715;SDS011;63484;52.054;8.518;2023-01-23T05:53:41;23.67;;;10.13;;
65715;SDS011;63484;52.054;8.518;2023-01-23T05:58:43;23.73;;;9.23;;
65715;SDS011;63484;52.054;8.518;2023-01-23T06:03:57;28.37;;;10.43;;
65715;SDS011;63484;52.054;8.518;2023-01-23T06:09:09;24.77;;;10.13;;
65715;SDS011;63484;52.054;8.518;2023-01-23T06:14:11;27.10;;;10.37;;
65715;SDS011;63484;52.054;8.518;2023-01-23T06:19:14;29.83;;;10.40;;
65715;SDS011;63484;52.054;8.518;2023-01-23T06:24:15;23.70;;;9.60;;
65715;SDS011;63484;52.054;8.518;2023-01-23T06:29:19;26.40;;;10.00;;
65715;SDS011;63484;52.054;8.518;2023-01-23T06:34:22;25.53;;;9.40;;
65715;SDS011;63484;52.054;8.518;2023-01-23T06:39:30;28.73;;;9.30;;
65715;SDS011;63484;52.054;8.518;2023-01-23T06:44:33;22.90;;;9.20;;
65715;SDS011;63484;52.054;8.518;2023-01-23T06:49:36;25.50;;;9.73;;
65715;SDS011;63484;52.054;8.518;2023-01-23T06:54:39;24.30;;;8.53;;
65715;SDS011;63484;52.054;8.518;2023-01-23T06:59:41;26.70;;;9.00;;
65715;SDS011;63484;52.054;8.518;2023-01-23T07:04:46;26.88;;;9.05;;
65715;SDS011;63484;52.054;8.518;2023-01-23T07:09:47;22.55;;;9.15;;
65715;SDS011;63484;52.054;8.518;2023-01-23T07:14:56;20.43;;;8.47;;
65715;SDS011;63484;52.054;8.518;2023-01-23T07:20:07;24.80;;;9.20;;
65715;SDS011;63484;52.054;8.518;2023-01-23T07:25:15;24.60;;;10.03;;
65715;SDS011;63484;52.054;8.518;2023-01-23T07:30:17;27.47;;;9.47;;
65715;SDS011;63484;52.054;8.518;2023-01-23T07:35:20;28.53;;;10.00;;
65715;SDS011;63484;52.054;8.518;2023-01-23T07:40:21;25.00;;;9.23;;
65715;SDS011;63484;52.054;8.518;2023-01-23T07:45:23;27.77;;;10.20;;
65715;SDS011;63484;52.054;8.518;2023-01-23T07:50:25;27.40;;;10.10;;
65715;SDS011;63484;52.054;8.518;2023-01-23T07:55:27;26.93;;;10.03;;
65715;SDS011;63484;52.054;8.518;2023-01-23T08:00:29;28.00;;;9.93;;
65715;SDS011;63484;52.054;8.518;2023-01-23T08:05:32;25.13;;;9.77;;
65715;SDS011;63484;52.054;8.518;2023-01-23T08:10:33;27.30;;;10.27;;
65715;SDS011;63484;52.054;8.518;2023-01-23T08:15:35;30.33;;;10.90;;
65715;SDS011;63484;52.054;8.518;2023-01-23T08:20:38;29.03;;;11.03;;
65715;SDS011;63484;52.054;8.518;2023-01-23T08:25:40;27.98;;;10.27;;
65715;SDS011;63484;52.054;8.518;2023-01-23T08:30:41;37.03;;;10.77;;
65715;SDS011;63484;52.054;8.518;2023-01-23T08:35:48;29.45;;;10.52;;
65715;SDS011;63484;52.054;8.518;2023-01-23T08:40:50;31.17;;;10.60;;
65715;SDS011;63484;52.054;8.518;2023-01-23T08:45:54;27.33;;;9.73;;
65715;SDS011;63484;52.054;8.518;2023-01-23T08:50:59;24.23;;;8.85;;
65715;SDS011;63484;52.054;8.518;2023-01-23T08:56:04;25.47;;;8.63;;
65715;SDS011;63484;52.054;8.518;2023-01-23T09:01:09;26.40;;;10.02;;
65715;SDS011;63484;52.054;8.518;2023-01-23T09:06:13;25.73;;;9.68;;
65715;SDS011;63484;52.054;8.518;2023-01-23T09:11:15;22.50;;;8.75;;
65715;SDS011;63484;52.054;8.518;2023-01-23T09:16:18;21.75;;;8.52;;
65715;SDS011;63484;52.054;8.518;2023-01-23T09:21:20;22.52;;;9.65;;
65715;SDS011;63484;52.054;8.518;2023-01-23T09:26:22;20.10;;;8.13;;
65715;SDS011;63484;52.054;8.518;2023-01-23T09:31:23;20.95;;;8.70;;
65715;SDS011;63484;52.054;8.518;2023-01-23T09:36:26;18.80;;;7.88;;
65715;SDS011;63484;52.054;8.518;2023-01-23T09:41:28;17.23;;;7.60;;
65715;SDS011;63484;52.054;8.518;2023-01-23T09:46:31;18.60;;;7.47;;
65715;SDS011;63484;52.054;8.518;2023-01-23T09:51:43;18.08;;;7.55;;
65715;SDS011;63484;52.054;8.518;2023-01-23T10:01:54;18.17;;;7.38;;
65715;SDS011;63484;52.054;8.518;2023-01-23T10:12:28;17.90;;;6.93;;
65715;SDS011;63484;52.054;8.518;2023-01-23T10:17:39;17.60;;;7.32;;
65715;SDS011;63484;52.054;8.518;2023-01-23T10:22:50;17.88;;;7.72;;
65715;SDS011;63484;52.054;8.518;2023-01-23T10:28:01;19.33;;;7.22;;
65715;SDS011;63484;52.054;8.518;2023-01-23T10:33:18;16.40;;;7.13;;
65715;SDS011;63484;52.054;8.518;2023-01-23T10:38:24;13.10;;;6.15;;
65715;SDS011;63484;52.054;8.518;2023-01-23T10:43:27;15.02;;;7.43;;
65715;SDS011;63484;52.054;8.518;2023-01-23T10:48:37;15.73;;;7.25;;
65715;SDS011;63484;52.054;8.518;2023-01-23T10:53:44;15.95;;;7.32;;
65715;SDS011;63484;52.054;8.518;2023-01-23T10:59:00;15.23;;;7.10;;
65715;SDS011;63484;52.054;8.518;2023-01-23T11:04:08;15.68;;;7.35;;
65715;SDS011;63484;52.054;8.518;2023-01-23T11:09:18;16.33;;;7.30;;
65715;SDS011;63484;52.054;8.518;2023-01-23T11:14:20;17.45;;;8.10;;
65715;SDS011;63484;52.054;8.518;2023-01-23T11:19:25;19.67;;;8.35;;
65715;SDS011;63484;52.054;8.518;2023-01-23T11:24:30;17.00;;;7.43;;
65715;SDS011;63484;52.054;8.518;2023-01-23T11:29:41;21.10;;;7.40;;
65715;SDS011;63484;52.054;8.518;2023-01-23T11:34:55;18.83;;;8.25;;
65715;SDS011;63484;52.054;8.518;2023-01-23T11:40:09;16.58;;;7.72;;
65715;SDS011;63484;52.054;8.518;2023-01-23T11:45:13;16.33;;;7.82;;
65715;SDS011;63484;52.054;8.518;2023-01-23T11:50:28;19.73;;;8.27;;
65715;SDS011;63484;52.054;8.518;2023-01-23T12:01:16;16.77;;;7.50;;
65715;SDS011;63484;52.054;8.518;2023-01-23T12:06:26;15.45;;;6.82;;
65715;SDS011;63484;52.054;8.518;2023-01-23T12:11:39;18.65;;;8.00;;
65715;SDS011;63484;52.054;8.518;2023-01-23T12:16:55;16.02;;;7.57;;
65715;SDS011;63484;52.054;8.518;2023-01-23T12:22:05;23.60;;;9.02;;
65715;SDS011;63484;52.054;8.518;2023-01-23T12:27:17;19.60;;;8.48;;
65715;SDS011;63484;52.054;8.518;2023-01-23T12:32:34;21.65;;;8.55;;
65715;SDS011;63484;52.054;8.518;2023-01-23T12:37:50;20.05;;;7.57;;
65715;SDS011;63484;52.054;8.518;2023-01-23T12:43:10;20.45;;;8.50;;
65715;SDS011;63484;52.054;8.518;2023-01-23T12:48:16;17.25;;;8.38;;
65715;SDS011;63484;52.054;8.518;2023-01-23T12:53:22;17.95;;;8.32;;
65715;SDS011;63484;52.054;8.518;2023-01-23T12:58:27;20.55;;;8.40;;
65715;SDS011;63484;52.054;8.518;2023-01-23T13:03:39;21.27;;;8.15;;
65715;SDS011;63484;52.054;8.518;2023-01-23T13:09:01;21.42;;;9.15;;
65715;SDS011;63484;52.054;8.518;2023-01-23T13:14:19;20.90;;;8.95;;
65715;SDS011;63484;52.054;8.518;2023-01-23T13:19:23;22.35;;;9.30;;
65715;SDS011;63484;52.054;8.518;2023-01-23T13:24:44;22.73;;;9.35;;
65715;SDS011;63484;52.054;8.518;2023-01-23T13:35:50;22.50;;;9.38;;
65715;SDS011;63484;52.054;8.518;2023-01-23T13:46:30;25.10;;;10.23;;
65715;SDS011;63484;52.054;8.518;2023-01-23T13:51:38;28.25;;;10.52;;
65715;SDS011;63484;52.054;8.518;2023-01-23T13:56:39;25.77;;;9.82;;
65715;SDS011;63484;52.054;8.518;2023-01-23T14:01:46;30.52;;;11.18;;
65715;SDS011;63484;52.054;8.518;2023-01-23T14:07:21;30.33;;;11.73;;
65715;SDS011;63484;52.054;8.518;2023-01-23T14:12:41;31.23;;;11.83;;
65715;SDS011;63484;52.054;8.518;2023-01-23T14:17:44;35.78;;;13.20;;
65715;SDS011;63484;52.054;8.518;2023-01-23T14:22:47;33.72;;;12.73;;
65715;SDS011;63484;52.054;8.518;2023-01-23T14:27:48;32.40;;;12.43;;
65715;SDS011;63484;52.054;8.518;2023-01-23T14:33:10;34.50;;;12.82;;
65715;SDS011;63484;52.054;8.518;2023-01-23T14:38:19;35.47;;;13.23;;
65715;SDS011;63484;52.054;8.518;2023-01-23T14:43:27;37.25;;;13.23;;
65715;SDS011;63484;52.054;8.518;2023-01-23T14:48:32;31.45;;;12.63;;
65715;SDS011;63484;52.054;8.518;2023-01-23T14:53:38;32.53;;;12.73;;
65715;SDS011;63484;52.054;8.518;2023-01-23T14:58:40;29.63;;;11.73;;
65715;SDS011;63484;52.054;8.518;2023-01-23T15:03:53;34.97;;;13.23;;
65715;SDS011;63484;52.054;8.518;2023-01-23T15:09:03;30.25;;;11.52;;
65715;SDS011;63484;52.054;8.518;2023-01-23T15:14:13;31.15;;;11.65;;
65715;SDS011;63484;52.054;8.518;2023-01-23T15:19:24;31.95;;;12.52;;
65715;SDS011;63484;52.054;8.518;2023-01-23T15:24:26;32.60;;;11.95;;
65715;SDS011;63484;52.054;8.518;2023-01-23T15:29:29;30.52;;;12.48;;
65715;SDS011;63484;52.054;8.518;2023-01-23T15:34:32;30.40;;;11.53;;
65715;SDS011;63484;52.054;8.518;2023-01-23T15:39:36;34.75;;;12.60;;
65715;SDS011;63484;52.054;8.518;2023-01-23T15:44:40;33.67;;;12.77;;
65715;SDS011;63484;52.054;8.518;2023-01-23T15:49:43;33.90;;;12.80;;
65715;SDS011;63484;52.054;8.518;2023-01-23T15:54:45;35.07;;;13.23;;
65715;SDS011;63484;52.054;8.518;2023-01-23T15:59:48;31.08;;;11.98;;
65715;SDS011;63484;52.054;8.518;2023-01-23T16:04:51;30.77;;;12.37;;
65715;SDS011;63484;52.054;8.518;2023-01-23T16:09:54;32.53;;;13.18;;
65715;SDS011;63484;52.054;8.518;2023-01-23T16:14:56;31.77;;;12.57;;
65715;SDS011;63484;52.054;8.518;2023-01-23T16:19:59;33.55;;;13.05;;
65715;SDS011;63484;52.054;8.518;2023-01-23T16:25:01;38.53;;;12.70;;
65715;SDS011;63484;52.054;8.518;2023-01-23T16:30:04;32.00;;;12.60;;
65715;SDS011;63484;52.054;8.518;2023-01-23T16:35:09;33.20;;;12.00;;
65715;SDS011;63484;52.054;8.518;2023-01-23T16:40:13;30.10;;;10.80;;
65715;SDS011;63484;52.054;8.518;2023-01-23T16:45:17;35.10;;;12.50;;
65715;SDS011;63484;52.054;8.518;2023-01-23T16:50:25;33.15;;;12.65;;
65715;SDS011;63484;52.054;8.518;2023-01-23T16:55:32;29.43;;;11.47;;
65715;SDS011;63484;52.054;8.518;2023-01-23T17:00:35;28.57;;;11.00;;
65715;SDS011;63484;52.054;8.518;2023-01-23T17:05:38;28.40;;;11.25;;
65715;SDS011;63484;52.054;8.518;2023-01-23T17:10:40;31.13;;;12.17;;
65715;SDS011;63484;52.054;8.518;2023-01-23T17:15:41;31.40;;;12.83;;
65715;SDS011;63484;52.054;8.518;2023-01-23T17:20:44;33.50;;;13.85;;
65715;SDS011;63484;52.054;8.518;2023-01-23T17:25:46;32.58;;;12.52;;
65715;SDS011;63484;52.054;8.518;2023-01-23T17:30:49;30.40;;;11.52;;
65715;SDS011;63484;52.054;8.518;2023-01-23T17:35:54;34.15;;;13.13;;
65715;SDS011;63484;52.054;8.518;2023-01-23T17:40:55;33.37;;;12.03;;
65715;SDS011;63484;52.054;8.518;2023-01-23T17:45:57;32.70;;;11.93;;
65715;SDS011;63484;52.054;8.518;2023-01-23T17:51:00;30.07;;;11.80;;
65715;SDS011;63484;52.054;8.518;2023-01-23T17:56:01;33.97;;;12.63;;
65715;SDS011;63484;52.054;8.518;2023-01-23T18:01:03;39.65;;;14.18;;
65715;SDS011;63484;52.054;8.518;2023-01-23T18:06:07;36.53;;;13.65;;
65715;SDS011;63484;52.054;8.518;2023-01-23T18:11:14;32.03;;;12.38;;
65715;SDS011;63484;52.054;8.518;2023-01-23T18:16:18;30.67;;;12.00;;
65715;SDS011;63484;52.054;8.518;2023-01-23T18:21:27;30.48;;;12.57;;
65715;SDS011;63484;52.054;8.518;2023-01-23T18:26:31;34.92;;;12.77;;
65715;SDS011;63484;52.054;8.518;2023-01-23T18:31:45;31.33;;;12.27;;
65715;SDS011;63484;52.054;8.518;2023-01-23T18:37:11;36.20;;;13.05;;
65715;SDS011;63484;52.054;8.518;2023-01-23T18:42:18;31.97;;;11.67;;
65715;SDS011;63484;52.054;8.518;2023-01-23T18:47:24;31.52;;;11.70;;
65715;SDS011;63484;52.054;8.518;2023-01-23T18:52:31;29.23;;;11.75;;
65715;SDS011;63484;52.054;8.518;2023-01-23T18:57:44;35.70;;;12.00;;
65715;SDS011;63484;52.054;8.518;2023-01-23T19:02:55;29.60;;;11.88;;
65715;SDS011;63484;52.054;8.518;2023-01-23T19:07:59;28.98;;;11.75;;
65715;SDS011;63484;52.054;8.518;2023-01-23T19:13:06;33.13;;;11.33;;
65715;SDS011;63484;52.054;8.518;2023-01-23T19:18:18;25.13;;;10.38;;
65715;SDS011;63484;52.054;8.518;2023-01-23T19:23:35;26.97;;;10.97;;
65715;SDS011;63484;52.054;8.518;2023-01-23T19:28:41;27.03;;;11.47;;
65715;SDS011;63484;52.054;8.518;2023-01-23T19:33:43;29.40;;;11.37;;
65715;SDS011;63484;52.054;8.518;2023-01-23T19:38:46;26.45;;;10.50;;
65715;SDS011;63484;52.054;8.518;2023-01-23T19:43:49;29.70;;;11.05;;
65715;SDS011;63484;52.054;8.518;2023-01-23T19:48:52;27.33;;;10.90;;
65715;SDS011;63484;52.054;8.518;2023-01-23T19:53:55;24.33;;;10.47;;
65715;SDS011;63484;52.054;8.518;2023-01-23T19:58:57;24.83;;;9.83;;
65715;SDS011;63484;52.054;8.518;2023-01-23T20:03:58;28.33;;;11.20;;
65715;SDS011;63484;52.054;8.518;2023-01-23T20:09:01;25.83;;;10.67;;
65715;SDS011;63484;52.054;8.518;2023-01-23T20:14:03;28.40;;;10.17;;
65715;SDS011;63484;52.054;8.518;2023-01-23T20:19:04;28.90;;;11.83;;
65715;SDS011;63484;52.054;8.518;2023-01-23T20:24:08;28.00;;;11.63;;
65715;SDS011;63484;52.054;8.518;2023-01-23T20:29:10;32.90;;;13.02;;
65715;SDS011;63484;52.054;8.518;2023-01-23T20:34:12;24.00;;;10.40;;
65715;SDS011;63484;52.054;8.518;2023-01-23T20:39:24;27.57;;;11.40;;
65715;SDS011;63484;52.054;8.518;2023-01-23T20:44:26;27.85;;;10.73;;
65715;SDS011;63484;52.054;8.518;2023-01-23T20:49:28;26.03;;;10.47;;
65715;SDS011;63484;52.054;8.518;2023-01-23T20:54:32;27.90;;;11.25;;
65715;SDS011;63484;52.054;8.518;2023-01-23T20:59:34;25.05;;;10.60;;
65715;SDS011;63484;52.054;8.518;2023-01-23T21:04:36;27.27;;;10.77;;
65715;SDS011;63484;52.054;8.518;2023-01-23T21:09:41;27.85;;;11.32;;
65715;SDS011;63484;52.054;8.518;2023-01-23T21:14:47;27.42;;;11.70;;
65715;SDS011;63484;52.054;8.518;2023-01-23T21:19:55;29.90;;;11.17;;
65715;SDS011;63484;52.054;8.518;2023-01-23T21:25:04;25.60;;;10.67;;
65715;SDS011;63484;52.054;8.518;2023-01-23T21:30:12;28.30;;;10.73;;
65715;SDS011;63484;52.054;8.518;2023-01-23T21:35:14;28.63;;;10.93;;
65715;SDS011;63484;52.054;8.518;2023-01-23T21:40:17;31.63;;;10.67;;
65715;SDS011;63484;52.054;8.518;2023-01-23T21:45:19;27.60;;;11.55;;
65715;SDS011;63484;52.054;8.518;2023-01-23T21:50:20;27.00;;;11.27;;
65715;SDS011;63484;52.054;8.518;2023-01-23T21:55:23;24.13;;;10.63;;
65715;SDS011;63484;52.054;8.518;2023-01-23T22:00:24;26.43;;;10.83;;
65715;SDS011;63484;52.054;8.518;2023-01-23T22:05:43;28.43;;;10.83;;
65715;SDS011;63484;52.054;8.518;2023-01-23T22:10:46;28.23;;;10.97;;
65715;SDS011;63484;52.054;8.518;2023-01-23T22:15:48;24.90;;;10.13;;
65715;SDS011;63484;52.054;8.518;2023-01-23T22:20:51;26.93;;;10.40;;
65715;SDS011;63484;52.054;8.518;2023-01-23T22:25:55;27.40;;;10.82;;
65715;SDS011;63484;52.054;8.518;2023-01-23T22:31:03;24.70;;;10.53;;
65715;SDS011;63484;52.054;8.518;2023-01-23T22:36:06;26.17;;;9.37;;
65715;SDS011;63484;52.054;8.518;2023-01-23T22:41:12;28.23;;;10.77;;
65715;SDS011;63484;52.054;8.518;2023-01-23T22:46:15;24.00;;;9.80;;
65715;SDS011;63484;52.054;8.518;2023-01-23T22:51:19;23.10;;;10.23;;
65715;SDS011;63484;52.054;8.518;2023-01-23T22:56:23;22.17;;;9.30;;
65715;SDS011;63484;52.054;8.518;2023-01-23T23:06:27;18.87;;;7.83;;
65715;SDS011;63484;52.054;8.518;2023-01-23T23:11:30;21.20;;;8.73;;
65715;SDS011;63484;52.054;8.518;2023-01-23T23:16:32;20.80;;;8.43;;
65715;SDS011;63484;52.054;8.518;2023-01-23T23:21:34;22.67;;;8.80;;
65715;SDS011;63484;52.054;8.518;2023-01-23T23:26:38;19.15;;;8.20;;
65715;SDS011;63484;52.054;8.518;2023-01-23T23:31:39;22.53;;;8.87;;
65715;SDS011;63484;52.054;8.518;2023-01-23T23:36:41;22.13;;;8.57;;
65715;SDS011;63484;52.054;8.518;2023-01-23T23:41:44;21.93;;;9.17;;
65715;SDS011;63484;52.054;8.518;2023-01-23T23:46:45;18.90;;;7.80;;
65715;SDS011;63484;52.054;8.518;2023-01-23T23:51:47;17.77;;;7.93;;
65715;SDS011;63484;52.054;8.518;2023-01-23T23:56:50;18.77;;;7.83;;
